Sacramento Executive Airport
KSAC : now visible

Airfield :











YOU CAN JOIN US ON...

 
LOGIN :

Register | Disclaimer

   EN    FR    IT 

 









Legend :    VFR   Marginal VFR   IFR   Intensive IFR   Very Intensive IFR
Visi :
Ceiling :
>= 8 km
>= 3000ft
5 to 8 km
1000 to 3000 ft
1500m to 5 km
500 to 1000 ft
800 to 1500m
200 to 500 ft
< 800m
< 200 ft
Symbols :   Thunderstorms  Fog  Heavy snow  Heavy precipitations  Wind > 20 kt






- Airport Elevation : 24 ft


KSAC - Sacramento Executive

CURRENT METAR :
  • 291653Z 21006KT 10SM CLR 20/12 A2981 RMK AO2 SLP095 T02000122

EXPIRED METARs :
  • 291553Z 22006KT 10SM CLR 18/12 A2981 RMK AO2 SLP096 T01830122
  • 291453Z 18006KT 10SM CLR 18/12 A2981 RMK AO2 SLP094 T01830122 52003

TAF KSAC
Valid from the 29 at 12:00 until the 30 at 12:00 UTC


291135Z 2912/3012 18009KT P6SM FEW250
FM291700 22012G19KT P6SM BKN250
FM300800 20014KT P6SM VCTS OVC100CB
KZOA FIR / North America



MET'MAP, your aeronautical weather chart ! - Copyright ORBIFLY December 2007 - Disclaimer

ORBIFLY MET'MAP TEAM :

Programming & Development : Alexandra Zaïnal
Concept & original design : Baudouin d'Aumeries
Assistance for programming : Marc-Olivier Méhu
Technical & hardware support : Manuel Goepfert

Contact : metmap@orbifly.com




SOURCES & CREDITS :

   NOAA       Earth
Advisory